sensor_id;sensor_type;location;lat;lon;timestamp;pressure;altitude;pressure_sealevel;temperature;humidity
73748;BME280;62056;52.130;5.428;2022-08-11T00:01:16;102544.78;;;22.25;45.56
73748;BME280;62056;52.130;5.428;2022-08-11T00:03:46;102535.22;;;22.18;45.33
73748;BME280;62056;52.130;5.428;2022-08-11T00:06:23;102539.22;;;22.12;46.37
73748;BME280;62056;52.130;5.428;2022-08-11T00:08:52;102537.66;;;22.11;45.57
73748;BME280;62056;52.130;5.428;2022-08-11T00:11:20;102539.72;;;22.06;46.93
73748;BME280;62056;52.130;5.428;2022-08-11T00:13:52;102537.53;;;21.99;46.63
73748;BME280;62056;52.130;5.428;2022-08-11T00:16:21;102539.13;;;21.91;47.11
73748;BME280;62056;52.130;5.428;2022-08-11T00:18:51;102538.38;;;21.82;47.85
73748;BME280;62056;52.130;5.428;2022-08-11T00:21:20;102541.06;;;21.82;47.71
73748;BME280;62056;52.130;5.428;2022-08-11T00:24:08;102541.22;;;21.77;48.12
73748;BME280;62056;52.130;5.428;2022-08-11T00:26:35;102545.56;;;21.69;48.18
73748;BME280;62056;52.130;5.428;2022-08-11T00:29:09;102547.47;;;21.60;48.47
73748;BME280;62056;52.130;5.428;2022-08-11T00:31:37;102547.97;;;21.53;48.94
73748;BME280;62056;52.130;5.428;2022-08-11T00:34:09;102551.47;;;21.45;49.57
73748;BME280;62056;52.130;5.428;2022-08-11T00:36:51;102542.09;;;21.42;49.89
73748;BME280;62056;52.130;5.428;2022-08-11T00:39:21;102546.97;;;21.40;49.24
73748;BME280;62056;52.130;5.428;2022-08-11T00:42:09;102547.94;;;21.36;49.25
73748;BME280;62056;52.130;5.428;2022-08-11T00:50:11;102543.47;;;21.22;50.45
73748;BME280;62056;52.130;5.428;2022-08-11T00:52:54;102545.56;;;21.17;50.88
73748;BME280;62056;52.130;5.428;2022-08-11T01:04:08;102550.44;;;20.97;52.15
73748;BME280;62056;52.130;5.428;2022-08-11T01:06:45;102550.59;;;20.92;51.02
73748;BME280;62056;52.130;5.428;2022-08-11T01:15:37;102555.66;;;20.76;52.04
73748;BME280;62056;52.130;5.428;2022-08-11T01:18:47;102545.59;;;20.68;52.83
73748;BME280;62056;52.130;5.428;2022-08-11T01:24:41;102546.72;;;20.58;52.85
73748;BME280;62056;52.130;5.428;2022-08-11T01:30:00;102538.22;;;20.51;52.92
73748;BME280;62056;52.130;5.428;2022-08-11T01:38:27;102544.84;;;20.36;54.50
73748;BME280;62056;52.130;5.428;2022-08-11T01:41:41;102540.97;;;20.29;54.12
73748;BME280;62056;52.130;5.428;2022-08-11T01:45:05;102544.63;;;20.24;55.83
73748;BME280;62056;52.130;5.428;2022-08-11T01:47:45;102545.56;;;20.19;54.31
73748;BME280;62056;52.130;5.428;2022-08-11T01:50:43;102540.47;;;20.18;55.22
73748;BME280;62056;52.130;5.428;2022-08-11T01:53:29;102543.16;;;20.18;54.22
73748;BME280;62056;52.130;5.428;2022-08-11T01:59:17;102546.28;;;20.02;55.74
73748;BME280;62056;52.130;5.428;2022-08-11T02:04:57;102549.41;;;19.96;56.69
73748;BME280;62056;52.130;5.428;2022-08-11T02:08:02;102554.81;;;19.96;56.09
73748;BME280;62056;52.130;5.428;2022-08-11T02:11:17;102540.81;;;19.94;55.72
73748;BME280;62056;52.130;5.428;2022-08-11T02:17:20;102533.09;;;19.78;56.52
73748;BME280;62056;52.130;5.428;2022-08-11T02:20:02;102539.13;;;19.75;56.84
73748;BME280;62056;52.130;5.428;2022-08-11T02:26:41;102527.91;;;19.68;56.75
73748;BME280;62056;52.130;5.428;2022-08-11T02:29:33;102534.72;;;19.66;57.40
73748;BME280;62056;52.130;5.428;2022-08-11T02:35:11;102538.28;;;19.52;57.56
73748;BME280;62056;52.130;5.428;2022-08-11T02:40:47;102531.03;;;19.39;58.50
73748;BME280;62056;52.130;5.428;2022-08-11T02:43:26;102539.53;;;19.32;58.70
73748;BME280;62056;52.130;5.428;2022-08-11T02:54:41;102530.59;;;19.23;59.44
73748;BME280;62056;52.130;5.428;2022-08-11T02:57:26;102527.91;;;19.23;59.58
73748;BME280;62056;52.130;5.428;2022-08-11T03:00:04;102527.09;;;19.23;59.97
73748;BME280;62056;52.130;5.428;2022-08-11T03:15:02;102520.44;;;19.06;60.90
73748;BME280;62056;52.130;5.428;2022-08-11T03:20:45;102519.34;;;19.07;61.31
73748;BME280;62056;52.130;5.428;2022-08-11T03:23:26;102515.03;;;19.06;60.41
73748;BME280;62056;52.130;5.428;2022-08-11T03:29:07;102514.53;;;19.04;61.10
73748;BME280;62056;52.130;5.428;2022-08-11T03:31:48;102513.94;;;19.07;59.35
73748;BME280;62056;52.130;5.428;2022-08-11T03:34:21;102518.56;;;19.07;59.56
73748;BME280;62056;52.130;5.428;2022-08-11T03:39:54;102513.16;;;19.07;59.75
73748;BME280;62056;52.130;5.428;2022-08-11T03:45:22;102520.44;;;19.06;60.50
73748;BME280;62056;52.130;5.428;2022-08-11T03:48:18;102521.97;;;18.98;60.46
73748;BME280;62056;52.130;5.428;2022-08-11T03:51:06;102518.06;;;18.91;61.31
73748;BME280;62056;52.130;5.428;2022-08-11T03:54:05;102519.78;;;18.87;61.98
73748;BME280;62056;52.130;5.428;2022-08-11T03:59:51;102530.19;;;18.79;61.52
73748;BME280;62056;52.130;5.428;2022-08-11T04:02:53;102526.13;;;18.77;62.16
73748;BME280;62056;52.130;5.428;2022-08-11T04:08:54;102513.69;;;18.67;61.83
73748;BME280;62056;52.130;5.428;2022-08-11T04:21:21;102512.78;;;18.44;62.97
73748;BME280;62056;52.130;5.428;2022-08-11T04:24:31;102522.75;;;18.44;63.00
73748;BME280;62056;52.130;5.428;2022-08-11T04:27:34;102515.28;;;18.40;63.22
73748;BME280;62056;52.130;5.428;2022-08-11T04:30:27;102507.81;;;18.37;63.54
73748;BME280;62056;52.130;5.428;2022-08-11T04:33:32;102513.50;;;18.36;63.24
73748;BME280;62056;52.130;5.428;2022-08-11T04:45:55;102505.16;;;18.18;65.45
73748;BME280;62056;52.130;5.428;2022-08-11T04:52:27;102509.19;;;18.21;65.21
73748;BME280;62056;52.130;5.428;2022-08-11T04:55:41;102511.06;;;18.20;64.81
73748;BME280;62056;52.130;5.428;2022-08-11T04:58:48;102499.78;;;18.18;64.31
73748;BME280;62056;52.130;5.428;2022-08-11T05:04:55;102500.09;;;18.17;65.43
73748;BME280;62056;52.130;5.428;2022-08-11T05:07:50;102498.72;;;18.19;63.97
73748;BME280;62056;52.130;5.428;2022-08-11T05:13:28;102496.81;;;18.34;64.59
73748;BME280;62056;52.130;5.428;2022-08-11T05:16:17;102495.13;;;18.38;63.98
73748;BME280;62056;52.130;5.428;2022-08-11T05:19:03;102502.59;;;18.41;63.87
73748;BME280;62056;52.130;5.428;2022-08-11T05:21:57;102501.41;;;18.47;64.08
73748;BME280;62056;52.130;5.428;2022-08-11T05:25:06;102501.63;;;18.51;65.00
73748;BME280;62056;52.130;5.428;2022-08-11T05:28:29;102502.13;;;18.53;63.38
73748;BME280;62056;52.130;5.428;2022-08-11T05:31:29;102502.31;;;18.56;63.72
73748;BME280;62056;52.130;5.428;2022-08-11T05:34:22;102502.69;;;18.64;64.21
73748;BME280;62056;52.130;5.428;2022-08-11T05:37:12;102507.69;;;18.70;64.36
73748;BME280;62056;52.130;5.428;2022-08-11T05:39:57;102516.38;;;18.81;64.94
73748;BME280;62056;52.130;5.428;2022-08-11T05:42:49;102515.28;;;18.96;65.76
73748;BME280;62056;52.130;5.428;2022-08-11T05:45:35;102514.03;;;19.16;66.20
73748;BME280;62056;52.130;5.428;2022-08-11T05:48:32;102527.25;;;19.40;66.87
73748;BME280;62056;52.130;5.428;2022-08-11T05:51:18;102519.66;;;19.65;67.20
73748;BME280;62056;52.130;5.428;2022-08-11T05:54:07;102518.56;;;19.88;67.18
73748;BME280;62056;52.130;5.428;2022-08-11T05:56:58;102535.69;;;20.15;66.90
73748;BME280;62056;52.130;5.428;2022-08-11T05:59:26;102527.34;;;20.34;66.37
73748;BME280;62056;52.130;5.428;2022-08-11T06:02:00;102526.78;;;20.54;64.86
73748;BME280;62056;52.130;5.428;2022-08-11T06:04:28;102524.16;;;20.72;65.90
73748;BME280;62056;52.130;5.428;2022-08-11T06:07:05;102524.06;;;20.94;64.18
73748;BME280;62056;52.130;5.428;2022-08-11T06:09:38;102528.03;;;21.14;64.63
73748;BME280;62056;52.130;5.428;2022-08-11T06:12:17;102527.25;;;21.31;62.10
73748;BME280;62056;52.130;5.428;2022-08-11T06:14:47;102525.53;;;21.44;63.44
73748;BME280;62056;52.130;5.428;2022-08-11T06:17:22;102530.44;;;21.59;62.81
73748;BME280;62056;52.130;5.428;2022-08-11T06:19:49;102521.69;;;21.71;62.64
73748;BME280;62056;52.130;5.428;2022-08-11T06:22:21;102522.28;;;21.86;61.44
73748;BME280;62056;52.130;5.428;2022-08-11T06:24:55;102524.78;;;21.99;60.57
73748;BME280;62056;52.130;5.428;2022-08-11T06:27:23;102521.72;;;22.10;61.48
73748;BME280;62056;52.130;5.428;2022-08-11T06:30:04;102522.34;;;22.24;60.18
73748;BME280;62056;52.130;5.428;2022-08-11T06:32:51;102515.09;;;22.37;59.81
73748;BME280;62056;52.130;5.428;2022-08-11T06:35:22;102521.41;;;22.50;60.09
73748;BME280;62056;52.130;5.428;2022-08-11T06:41:01;102514.44;;;22.70;59.33
73748;BME280;62056;52.130;5.428;2022-08-11T06:43:58;102511.41;;;22.71;57.11
73748;BME280;62056;52.130;5.428;2022-08-11T06:46:36;102510.88;;;22.78;57.71
73748;BME280;62056;52.130;5.428;2022-08-11T06:49:06;102514.69;;;22.86;57.48
73748;BME280;62056;52.130;5.428;2022-08-11T06:51:55;102515.72;;;22.93;57.00
73748;BME280;62056;52.130;5.428;2022-08-11T06:54:36;102515.34;;;23.03;56.54
73748;BME280;62056;52.130;5.428;2022-08-11T06:57:11;102508.28;;;23.11;54.88
73748;BME280;62056;52.130;5.428;2022-08-11T07:00:00;102514.78;;;23.19;55.55
73748;BME280;62056;52.130;5.428;2022-08-11T07:02:53;102513.91;;;23.27;55.52
73748;BME280;62056;52.130;5.428;2022-08-11T07:05:37;102507.47;;;23.32;53.96
73748;BME280;62056;52.130;5.428;2022-08-11T07:08:40;102511.22;;;23.39;53.22
73748;BME280;62056;52.130;5.428;2022-08-11T07:11:50;102507.53;;;23.44;53.66
73748;BME280;62056;52.130;5.428;2022-08-11T07:14:46;102511.63;;;23.50;53.77
73748;BME280;62056;52.130;5.428;2022-08-11T07:17:39;102517.16;;;23.54;52.74
73748;BME280;62056;52.130;5.428;2022-08-11T07:20:08;102524.63;;;23.57;53.16
73748;BME280;62056;52.130;5.428;2022-08-11T07:22:56;102517.75;;;23.59;52.73
73748;BME280;62056;52.130;5.428;2022-08-11T07:25:43;102518.53;;;23.60;52.63
73748;BME280;62056;52.130;5.428;2022-08-11T07:28:33;102515.81;;;23.60;52.82
73748;BME280;62056;52.130;5.428;2022-08-11T07:31:31;102522.38;;;23.59;52.13
73748;BME280;62056;52.130;5.428;2022-08-11T07:36:54;102515.34;;;23.58;52.14
73748;BME280;62056;52.130;5.428;2022-08-11T07:39:25;102522.06;;;23.60;52.52
73748;BME280;62056;52.130;5.428;2022-08-11T07:41:55;102530.19;;;23.60;52.02
73748;BME280;62056;52.130;5.428;2022-08-11T07:44:24;102517.41;;;23.61;52.09
73748;BME280;62056;52.130;5.428;2022-08-11T07:47:00;102511.31;;;23.64;52.33
73748;BME280;62056;52.130;5.428;2022-08-11T07:49:47;102521.50;;;23.67;51.71
73748;BME280;62056;52.130;5.428;2022-08-11T07:52:34;102522.44;;;23.71;51.73
73748;BME280;62056;52.130;5.428;2022-08-11T07:55:12;102509.75;;;23.75;51.20
73748;BME280;62056;52.130;5.428;2022-08-11T07:57:40;102515.00;;;23.80;51.12
73748;BME280;62056;52.130;5.428;2022-08-11T08:00:53;102517.16;;;23.87;50.85
73748;BME280;62056;52.130;5.428;2022-08-11T08:03:48;102511.84;;;23.91;51.04
73748;BME280;62056;52.130;5.428;2022-08-11T08:06:35;102509.72;;;23.96;51.46
73748;BME280;62056;52.130;5.428;2022-08-11T08:09:37;102506.44;;;24.03;50.92
73748;BME280;62056;52.130;5.428;2022-08-11T08:12:27;102506.19;;;24.08;51.01
73748;BME280;62056;52.130;5.428;2022-08-11T08:15:22;102509.03;;;24.12;49.73
73748;BME280;62056;52.130;5.428;2022-08-11T08:18:08;102509.16;;;24.15;50.51
73748;BME280;62056;52.130;5.428;2022-08-11T08:20:54;102512.47;;;24.21;50.27
73748;BME280;62056;52.130;5.428;2022-08-11T08:23:25;102520.38;;;24.26;48.59
73748;BME280;62056;52.130;5.428;2022-08-11T08:26:06;102511.19;;;24.31;49.00
73748;BME280;62056;52.130;5.428;2022-08-11T08:28:57;102509.03;;;24.36;49.77
73748;BME280;62056;52.130;5.428;2022-08-11T08:31:45;102516.19;;;24.41;49.88
73748;BME280;62056;52.130;5.428;2022-08-11T08:34:13;102508.59;;;24.47;49.98
73748;BME280;62056;52.130;5.428;2022-08-11T08:36:44;102512.69;;;24.53;49.44
73748;BME280;62056;52.130;5.428;2022-08-11T08:39:12;102514.38;;;24.57;49.82
73748;BME280;62056;52.130;5.428;2022-08-11T08:41:41;102514.59;;;24.64;49.04
73748;BME280;62056;52.130;5.428;2022-08-11T08:44:11;102509.72;;;24.70;49.01
73748;BME280;62056;52.130;5.428;2022-08-11T08:47:03;102505.28;;;24.78;48.61
73748;BME280;62056;52.130;5.428;2022-08-11T08:49:37;102507.09;;;24.86;48.33
73748;BME280;62056;52.130;5.428;2022-08-11T08:52:07;102509.56;;;24.91;47.98
73748;BME280;62056;52.130;5.428;2022-08-11T08:55:01;102502.06;;;25.00;47.23
73748;BME280;62056;52.130;5.428;2022-08-11T08:57:32;102512.69;;;25.05;47.77
73748;BME280;62056;52.130;5.428;2022-08-11T09:00:07;102506.31;;;25.14;46.79
73748;BME280;62056;52.130;5.428;2022-08-11T09:02:40;102510.06;;;25.21;47.62
73748;BME280;62056;52.130;5.428;2022-08-11T09:05:07;102505.34;;;25.34;46.93
73748;BME280;62056;52.130;5.428;2022-08-11T09:07:36;102498.97;;;25.42;46.88
73748;BME280;62056;52.130;5.428;2022-08-11T09:10:07;102497.22;;;25.50;45.51
73748;BME280;62056;52.130;5.428;2022-08-11T09:12:34;102502.56;;;25.62;44.85
73748;BME280;62056;52.130;5.428;2022-08-11T09:15:12;102494.94;;;25.68;45.09
73748;BME280;62056;52.130;5.428;2022-08-11T09:17:45;102497.78;;;25.72;44.70
73748;BME280;62056;52.130;5.428;2022-08-11T09:20:21;102493.75;;;25.81;44.20
73748;BME280;62056;52.130;5.428;2022-08-11T09:22:50;102497.78;;;25.88;44.80
73748;BME280;62056;52.130;5.428;2022-08-11T09:25:59;102494.03;;;25.92;43.60
73748;BME280;62056;52.130;5.428;2022-08-11T09:28:46;102491.13;;;26.01;44.42
73748;BME280;62056;52.130;5.428;2022-08-11T09:31:14;102474.59;;;26.10;44.18
73748;BME280;62056;52.130;5.428;2022-08-11T09:33:43;102474.78;;;26.17;44.03
73748;BME280;62056;52.130;5.428;2022-08-11T09:36:12;102474.13;;;26.23;42.93
73748;BME280;62056;52.130;5.428;2022-08-11T09:38:59;102477.00;;;26.31;43.34
73748;BME280;62056;52.130;5.428;2022-08-11T09:41:45;102473.31;;;26.39;42.54
73748;BME280;62056;52.130;5.428;2022-08-11T09:44:30;102472.31;;;26.47;42.11
73748;BME280;62056;52.130;5.428;2022-08-11T09:47:20;102471.25;;;26.52;41.69
73748;BME280;62056;52.130;5.428;2022-08-11T09:49:48;102470.63;;;26.58;41.51
73748;BME280;62056;52.130;5.428;2022-08-11T09:52:17;102469.63;;;26.67;40.34
73748;BME280;62056;52.130;5.428;2022-08-11T09:54:46;102468.28;;;26.76;40.77
73748;BME280;62056;52.130;5.428;2022-08-11T09:57:17;102466.84;;;26.82;39.43
73748;BME280;62056;52.130;5.428;2022-08-11T10:00:07;102459.59;;;26.90;39.94
73748;BME280;62056;52.130;5.428;2022-08-11T10:02:45;102463.75;;;27.03;39.08
73748;BME280;62056;52.130;5.428;2022-08-11T10:05:16;102465.13;;;27.13;38.68
73748;BME280;62056;52.130;5.428;2022-08-11T10:08:03;102461.72;;;27.20;38.52
73748;BME280;62056;52.130;5.428;2022-08-11T10:10:43;102460.66;;;27.24;34.59
73748;BME280;62056;52.130;5.428;2022-08-11T10:13:21;102459.22;;;27.31;37.43
73748;BME280;62056;52.130;5.428;2022-08-11T10:16:11;102452.31;;;27.37;37.69
73748;BME280;62056;52.130;5.428;2022-08-11T10:18:43;102452.03;;;27.42;37.54
73748;BME280;62056;52.130;5.428;2022-08-11T10:23:56;102449.66;;;27.63;36.59
73748;BME280;62056;52.130;5.428;2022-08-11T10:26:42;102444.66;;;27.69;36.69
73748;BME280;62056;52.130;5.428;2022-08-11T10:29:30;102455.34;;;27.78;36.73
73748;BME280;62056;52.130;5.428;2022-08-11T10:32:24;102448.06;;;27.85;35.31
73748;BME280;62056;52.130;5.428;2022-08-11T10:35:36;102441.56;;;27.94;35.15
73748;BME280;62056;52.130;5.428;2022-08-11T10:38:03;102436.56;;;27.99;34.07
73748;BME280;62056;52.130;5.428;2022-08-11T10:40:36;102440.56;;;28.05;34.69
73748;BME280;62056;52.130;5.428;2022-08-11T10:43:04;102429.31;;;28.11;34.68
73748;BME280;62056;52.130;5.428;2022-08-11T10:45:35;102430.63;;;28.20;33.51
73748;BME280;62056;52.130;5.428;2022-08-11T10:48:26;102429.19;;;28.30;33.10
73748;BME280;62056;52.130;5.428;2022-08-11T10:50:54;102428.53;;;28.40;33.10
73748;BME280;62056;52.130;5.428;2022-08-11T10:53:43;102429.44;;;28.48;33.10
73748;BME280;62056;52.130;5.428;2022-08-11T10:56:30;102424.81;;;28.52;33.08
73748;BME280;62056;52.130;5.428;2022-08-11T10:59:17;102423.72;;;28.60;33.55
73748;BME280;62056;52.130;5.428;2022-08-11T11:01:45;102416.34;;;28.64;32.17
73748;BME280;62056;52.130;5.428;2022-08-11T11:04:17;102413.66;;;28.68;30.86
73748;BME280;62056;52.130;5.428;2022-08-11T11:09:29;102416.25;;;28.88;31.13
73748;BME280;62056;52.130;5.428;2022-08-11T11:12:17;102408.81;;;28.88;27.04
73748;BME280;62056;52.130;5.428;2022-08-11T11:15:07;102410.09;;;29.01;30.20
73748;BME280;62056;52.130;5.428;2022-08-11T11:18:01;102409.38;;;29.08;30.52
73748;BME280;62056;52.130;5.428;2022-08-11T11:20:44;102402.03;;;29.12;30.49
73748;BME280;62056;52.130;5.428;2022-08-11T11:23:17;102402.84;;;29.16;30.45
73748;BME280;62056;52.130;5.428;2022-08-11T11:25:57;102400.94;;;29.20;30.45
73748;BME280;62056;52.130;5.428;2022-08-11T11:31:45;102401.44;;;29.33;29.67
73748;BME280;62056;52.130;5.428;2022-08-11T11:34:36;102399.50;;;29.37;30.06
73748;BME280;62056;52.130;5.428;2022-08-11T11:37:21;102397.59;;;29.41;30.41
73748;BME280;62056;52.130;5.428;2022-08-11T11:39:48;102398.06;;;29.51;29.90
73748;BME280;62056;52.130;5.428;2022-08-11T11:42:16;102397.72;;;29.59;29.27
73748;BME280;62056;52.130;5.428;2022-08-11T11:44:44;102394.63;;;29.61;29.58
73748;BME280;62056;52.130;5.428;2022-08-11T11:47:13;102394.63;;;29.64;29.66
73748;BME280;62056;52.130;5.428;2022-08-11T11:49:41;102391.13;;;29.67;29.67
73748;BME280;62056;52.130;5.428;2022-08-11T11:52:15;102381.00;;;29.72;29.94
73748;BME280;62056;52.130;5.428;2022-08-11T11:54:46;102386.53;;;29.75;28.92
73748;BME280;62056;52.130;5.428;2022-08-11T11:57:17;102379.53;;;29.85;29.30
73748;BME280;62056;52.130;5.428;2022-08-11T12:00:06;102378.41;;;29.93;27.69
73748;BME280;62056;52.130;5.428;2022-08-11T12:03:01;102377.66;;;29.96;29.03
73748;BME280;62056;52.130;5.428;2022-08-11T12:05:32;102372.56;;;29.98;28.60
73748;BME280;62056;52.130;5.428;2022-08-11T12:08:00;102365.53;;;30.01;28.58
73748;BME280;62056;52.130;5.428;2022-08-11T12:10:53;102362.00;;;30.04;28.45
73748;BME280;62056;52.130;5.428;2022-08-11T12:13:40;102367.91;;;30.10;28.02
73748;BME280;62056;52.130;5.428;2022-08-11T12:16:10;102362.47;;;30.17;27.69
73748;BME280;62056;52.130;5.428;2022-08-11T12:18:58;102359.34;;;30.22;27.43
73748;BME280;62056;52.130;5.428;2022-08-11T12:21:27;102359.34;;;30.22;27.76
73748;BME280;62056;52.130;5.428;2022-08-11T12:23:56;102351.13;;;30.25;27.99
73748;BME280;62056;52.130;5.428;2022-08-11T12:26:42;102346.06;;;30.27;27.31
73748;BME280;62056;52.130;5.428;2022-08-11T12:29:44;102339.06;;;30.34;27.84
73748;BME280;62056;52.130;5.428;2022-08-11T12:32:16;102338.25;;;30.37;27.16
73748;BME280;62056;52.130;5.428;2022-08-11T12:34:45;102335.53;;;30.40;26.97
73748;BME280;62056;52.130;5.428;2022-08-11T12:37:12;102335.94;;;30.46;27.18
73748;BME280;62056;52.130;5.428;2022-08-11T12:39:50;102327.31;;;30.48;25.19
73748;BME280;62056;52.130;5.428;2022-08-11T12:42:58;102336.75;;;30.54;26.39
73748;BME280;62056;52.130;5.428;2022-08-11T12:45:51;102322.25;;;30.57;26.56
73748;BME280;62056;52.130;5.428;2022-08-11T12:48:20;102321.09;;;30.61;25.74
73748;BME280;62056;52.130;5.428;2022-08-11T12:51:31;102315.22;;;30.63;26.45
73748;BME280;62056;52.130;5.428;2022-08-11T12:54:49;102311.69;;;30.70;25.54
73748;BME280;62056;52.130;5.428;2022-08-11T12:57:30;102308.56;;;30.78;25.99
73748;BME280;62056;52.130;5.428;2022-08-11T13:00:25;102310.91;;;30.83;24.78
73748;BME280;62056;52.130;5.428;2022-08-11T13:03:12;102311.31;;;30.89;25.28
73748;BME280;62056;52.130;5.428;2022-08-11T13:06:01;102307.41;;;30.94;25.69
73748;BME280;62056;52.130;5.428;2022-08-11T13:08:33;102312.13;;;30.97;25.37
73748;BME280;62056;52.130;5.428;2022-08-11T13:11:01;102305.84;;;31.00;25.81
73748;BME280;62056;52.130;5.428;2022-08-11T13:13:48;102303.47;;;31.02;25.10
73748;BME280;62056;52.130;5.428;2022-08-11T13:16:27;102295.63;;;31.04;25.00
73748;BME280;62056;52.130;5.428;2022-08-11T13:18:58;102296.03;;;31.10;25.71
73748;BME280;62056;52.130;5.428;2022-08-11T13:21:27;102290.53;;;31.10;25.05
73748;BME280;62056;52.130;5.428;2022-08-11T13:23:57;102290.16;;;31.15;24.43
73748;BME280;62056;52.130;5.428;2022-08-11T13:26:29;102283.84;;;31.18;24.51
73748;BME280;62056;52.130;5.428;2022-08-11T13:29:22;102285.81;;;31.21;24.48
73748;BME280;62056;52.130;5.428;2022-08-11T13:31:52;102291.69;;;31.26;25.04
73748;BME280;62056;52.130;5.428;2022-08-11T13:34:20;102278.34;;;31.29;24.43
73748;BME280;62056;52.130;5.428;2022-08-11T13:36:54;102280.28;;;31.35;23.33
73748;BME280;62056;52.130;5.428;2022-08-11T13:39:23;102279.13;;;31.40;24.34
73748;BME280;62056;52.130;5.428;2022-08-11T13:41:55;102283.44;;;31.44;24.05
73748;BME280;62056;52.130;5.428;2022-08-11T13:44:25;102275.22;;;31.44;24.00
73748;BME280;62056;52.130;5.428;2022-08-11T13:46:55;102264.22;;;31.44;23.60
73748;BME280;62056;52.130;5.428;2022-08-11T13:49:23;102274.78;;;31.57;24.18
73748;BME280;62056;52.130;5.428;2022-08-11T13:51:54;102268.88;;;31.62;23.33
73748;BME280;62056;52.130;5.428;2022-08-11T13:54:28;102269.69;;;31.59;22.41
73748;BME280;62056;52.130;5.428;2022-08-11T13:57:00;102270.84;;;31.58;23.91
73748;BME280;62056;52.130;5.428;2022-08-11T13:59:27;102268.09;;;31.58;23.68
73748;BME280;62056;52.130;5.428;2022-08-11T14:02:11;102255.13;;;31.62;23.43
73748;BME280;62056;52.130;5.428;2022-08-11T14:05:02;102258.25;;;31.64;23.54
73748;BME280;62056;52.130;5.428;2022-08-11T14:07:37;102255.50;;;31.67;21.96
73748;BME280;62056;52.130;5.428;2022-08-11T14:10:06;102260.19;;;31.71;23.31
73748;BME280;62056;52.130;5.428;2022-08-11T14:12:36;102259.38;;;31.81;22.87
73748;BME280;62056;52.130;5.428;2022-08-11T14:15:31;102244.84;;;31.84;23.15
73748;BME280;62056;52.130;5.428;2022-08-11T14:18:10;102255.41;;;31.85;22.31
73748;BME280;62056;52.130;5.428;2022-08-11T14:20:53;102260.53;;;31.83;21.75
73748;BME280;62056;52.130;5.428;2022-08-11T14:23:41;102249.56;;;31.80;22.29
73748;BME280;62056;52.130;5.428;2022-08-11T14:26:09;102242.88;;;31.81;22.88
73748;BME280;62056;52.130;5.428;2022-08-11T14:28:59;102240.50;;;31.83;22.49
73748;BME280;62056;52.130;5.428;2022-08-11T14:31:29;102238.13;;;31.85;23.15
73748;BME280;62056;52.130;5.428;2022-08-11T14:34:00;102241.28;;;31.87;22.04
73748;BME280;62056;52.130;5.428;2022-08-11T14:36:30;102243.63;;;31.89;22.12
73748;BME280;62056;52.130;5.428;2022-08-11T14:39:01;102237.31;;;31.92;22.15
73748;BME280;62056;52.130;5.428;2022-08-11T14:41:29;102241.25;;;31.94;22.68
73748;BME280;62056;52.130;5.428;2022-08-11T14:44:36;102236.13;;;31.96;22.36
73748;BME280;62056;52.130;5.428;2022-08-11T14:47:25;102232.97;;;31.98;22.27
73748;BME280;62056;52.130;5.428;2022-08-11T14:49:54;102224.34;;;32.03;22.51
73748;BME280;62056;52.130;5.428;2022-08-11T14:52:36;102218.41;;;32.08;22.17
73748;BME280;62056;52.130;5.428;2022-08-11T14:55:03;102231.34;;;32.11;22.24
73748;BME280;62056;52.130;5.428;2022-08-11T14:57:49;102219.16;;;32.12;22.74
73748;BME280;62056;52.130;5.428;2022-08-11T15:00:31;102218.00;;;32.13;22.30
73748;BME280;62056;52.130;5.428;2022-08-11T15:03:00;102221.91;;;32.12;22.17
73748;BME280;62056;52.130;5.428;2022-08-11T15:05:50;102219.16;;;32.12;20.99
73748;BME280;62056;52.130;5.428;2022-08-11T15:08:26;102213.25;;;32.14;21.88
73748;BME280;62056;52.130;5.428;2022-08-11T15:11:14;102215.22;;;32.13;22.12
73748;BME280;62056;52.130;5.428;2022-08-11T15:14:03;102208.56;;;32.11;22.20
73748;BME280;62056;52.130;5.428;2022-08-11T15:16:35;102203.47;;;32.09;22.01
73748;BME280;62056;52.130;5.428;2022-08-11T15:19:22;102204.25;;;32.06;21.83
73748;BME280;62056;52.130;5.428;2022-08-11T15:21:50;102200.72;;;32.05;21.82
73748;BME280;62056;52.130;5.428;2022-08-11T15:24:36;102194.81;;;32.11;21.59
73748;BME280;62056;52.130;5.428;2022-08-11T15:27:15;102198.34;;;32.11;21.43
73748;BME280;62056;52.130;5.428;2022-08-11T15:30:03;102200.69;;;32.13;20.93
73748;BME280;62056;52.130;5.428;2022-08-11T15:33:01;102187.75;;;32.10;21.04
73748;BME280;62056;52.130;5.428;2022-08-11T15:35:48;102196.38;;;32.08;21.20
73748;BME280;62056;52.130;5.428;2022-08-11T15:38:39;102190.88;;;32.12;21.18
73748;BME280;62056;52.130;5.428;2022-08-11T15:41:07;102185.00;;;32.10;21.27
73748;BME280;62056;52.130;5.428;2022-08-11T15:43:57;102190.88;;;32.12;20.83
73748;BME280;62056;52.130;5.428;2022-08-11T15:46:50;102180.25;;;32.10;21.12
73748;BME280;62056;52.130;5.428;2022-08-11T15:49:29;102180.25;;;32.10;21.70
73748;BME280;62056;52.130;5.428;2022-08-11T15:52:20;102170.47;;;32.09;21.12
73748;BME280;62056;52.130;5.428;2022-08-11T15:54:48;102180.69;;;32.09;21.45
73748;BME280;62056;52.130;5.428;2022-08-11T15:57:17;102168.50;;;32.06;20.92
73748;BME280;62056;52.130;5.428;2022-08-11T16:00:06;102167.34;;;32.03;21.22
73748;BME280;62056;52.130;5.428;2022-08-11T16:02:53;102170.50;;;32.02;21.05
73748;BME280;62056;52.130;5.428;2022-08-11T16:05:42;102165.38;;;32.04;21.82
73748;BME280;62056;52.130;5.428;2022-08-11T16:08:14;102157.91;;;32.04;21.57
73748;BME280;62056;52.130;5.428;2022-08-11T16:10:53;102157.91;;;32.04;20.83
73748;BME280;62056;52.130;5.428;2022-08-11T16:13:23;102157.13;;;32.04;21.53
73748;BME280;62056;52.130;5.428;2022-08-11T16:15:54;102159.50;;;32.02;21.32
73748;BME280;62056;52.130;5.428;2022-08-11T16:18:53;102154.81;;;31.99;21.25